sensor_id;sensor_type;location;lat;lon;timestamp;pressure;altitude;pressure_sealevel;temperature
19061;BMP280;9663;48.996;8.334;2023-06-22T00:02:18;100162.44;;;28.69
19061;BMP280;9663;48.996;8.334;2023-06-22T00:04:44;100162.69;;;28.66
19061;BMP280;9663;48.996;8.334;2023-06-22T00:07:10;100156.75;;;28.64
19061;BMP280;9663;48.996;8.334;2023-06-22T00:09:36;100152.53;;;28.63
19061;BMP280;9663;48.996;8.334;2023-06-22T00:12:02;100159.56;;;28.61
19061;BMP280;9663;48.996;8.334;2023-06-22T00:14:28;100168.38;;;28.60
19061;BMP280;9663;48.996;8.334;2023-06-22T00:16:53;100208.34;;;28.61
19061;BMP280;9663;48.996;8.334;2023-06-22T00:19:24;100284.34;;;28.56
19061;BMP280;9663;48.996;8.334;2023-06-22T00:21:50;100369.47;;;28.46
19061;BMP280;9663;48.996;8.334;2023-06-22T00:24:20;100443.66;;;28.32
19061;BMP280;9663;48.996;8.334;2023-06-22T00:26:45;100463.13;;;28.15
19061;BMP280;9663;48.996;8.334;2023-06-22T00:29:11;100399.66;;;28.04
19061;BMP280;9663;48.996;8.334;2023-06-22T00:31:37;100238.50;;;27.98
19061;BMP280;9663;48.996;8.334;2023-06-22T00:34:03;100220.47;;;27.95
19061;BMP280;9663;48.996;8.334;2023-06-22T00:36:28;100207.34;;;27.96
19061;BMP280;9663;48.996;8.334;2023-06-22T00:38:54;100188.59;;;27.92
19061;BMP280;9663;48.996;8.334;2023-06-22T00:41:20;100199.47;;;27.86
19061;BMP280;9663;48.996;8.334;2023-06-22T00:43:45;100219.13;;;27.79
19061;BMP280;9663;48.996;8.334;2023-06-22T00:46:11;100214.84;;;27.67
19061;BMP280;9663;48.996;8.334;2023-06-22T00:48:38;100210.50;;;27.55
19061;BMP280;9663;48.996;8.334;2023-06-22T00:51:05;100207.84;;;27.44
19061;BMP280;9663;48.996;8.334;2023-06-22T00:53:31;100196.22;;;27.37
19061;BMP280;9663;48.996;8.334;2023-06-22T00:56:00;100213.22;;;27.30
19061;BMP280;9663;48.996;8.334;2023-06-22T00:58:26;100219.72;;;27.25
19061;BMP280;9663;48.996;8.334;2023-06-22T01:00:52;100231.41;;;27.19
19061;BMP280;9663;48.996;8.334;2023-06-22T01:03:17;100231.75;;;27.15
19061;BMP280;9663;48.996;8.334;2023-06-22T01:05:46;100228.31;;;27.14
19061;BMP280;9663;48.996;8.334;2023-06-22T01:08:43;100232.63;;;27.03
19061;BMP280;9663;48.996;8.334;2023-06-22T01:11:22;100234.28;;;27.04
19061;BMP280;9663;48.996;8.334;2023-06-22T01:14:06;100218.25;;;26.98
19061;BMP280;9663;48.996;8.334;2023-06-22T01:16:37;100199.22;;;26.97
19061;BMP280;9663;48.996;8.334;2023-06-22T01:19:43;100194.97;;;26.84
19061;BMP280;9663;48.996;8.334;2023-06-22T01:22:13;100211.41;;;26.84
19061;BMP280;9663;48.996;8.334;2023-06-22T01:28:00;100216.56;;;26.73
19061;BMP280;9663;48.996;8.334;2023-06-22T01:30:30;100219.75;;;26.77
19061;BMP280;9663;48.996;8.334;2023-06-22T01:33:02;100211.97;;;26.77
19061;BMP280;9663;48.996;8.334;2023-06-22T01:35:30;100219.03;;;26.75
19061;BMP280;9663;48.996;8.334;2023-06-22T01:37:56;100214.78;;;26.74
19061;BMP280;9663;48.996;8.334;2023-06-22T01:40:23;100213.94;;;26.73
19061;BMP280;9663;48.996;8.334;2023-06-22T01:42:50;100212.28;;;26.72
19061;BMP280;9663;48.996;8.334;2023-06-22T01:45:17;100215.84;;;26.71
19061;BMP280;9663;48.996;8.334;2023-06-22T01:47:44;100222.78;;;26.71
19061;BMP280;9663;48.996;8.334;2023-06-22T01:50:11;100219.47;;;26.69
19061;BMP280;9663;48.996;8.334;2023-06-22T01:52:37;100219.47;;;26.69
19061;BMP280;9663;48.996;8.334;2023-06-22T01:55:03;100222.28;;;26.66
19061;BMP280;9663;48.996;8.334;2023-06-22T01:57:30;100218.03;;;26.65
19061;BMP280;9663;48.996;8.334;2023-06-22T02:00:03;100211.03;;;26.65
19061;BMP280;9663;48.996;8.334;2023-06-22T02:02:39;100219.88;;;26.63
19061;BMP280;9663;48.996;8.334;2023-06-22T02:05:08;100211.25;;;26.63
19061;BMP280;9663;48.996;8.334;2023-06-22T02:07:46;100207.13;;;26.60
19061;BMP280;9663;48.996;8.334;2023-06-22T02:10:16;100207.22;;;26.59
19061;BMP280;9663;48.996;8.334;2023-06-22T02:12:44;100209.94;;;26.57
19061;BMP280;9663;48.996;8.334;2023-06-22T02:15:11;100213.44;;;26.56
19061;BMP280;9663;48.996;8.334;2023-06-22T02:17:38;100199.72;;;26.54
19061;BMP280;9663;48.996;8.334;2023-06-22T02:20:04;100205.03;;;26.53
19061;BMP280;9663;48.996;8.334;2023-06-22T02:22:34;100199.22;;;26.49
19061;BMP280;9663;48.996;8.334;2023-06-22T02:25:00;100197.53;;;26.48
19061;BMP280;9663;48.996;8.334;2023-06-22T02:27:26;100201.09;;;26.47
19061;BMP280;9663;48.996;8.334;2023-06-22T02:29:51;100208.19;;;26.45
19061;BMP280;9663;48.996;8.334;2023-06-22T02:32:17;100199.63;;;26.43
19061;BMP280;9663;48.996;8.334;2023-06-22T02:34:43;100212.63;;;26.43
19061;BMP280;9663;48.996;8.334;2023-06-22T02:37:16;100191.00;;;26.43
19061;BMP280;9663;48.996;8.334;2023-06-22T02:39:42;100192.03;;;26.40
19061;BMP280;9663;48.996;8.334;2023-06-22T02:42:08;100180.09;;;26.38
19061;BMP280;9663;48.996;8.334;2023-06-22T02:44:36;100168.25;;;26.34
19061;BMP280;9663;48.996;8.334;2023-06-22T02:47:02;100184.88;;;26.31
19061;BMP280;9663;48.996;8.334;2023-06-22T02:49:28;100175.66;;;26.27
19061;BMP280;9663;48.996;8.334;2023-06-22T02:51:54;100172.28;;;26.25
19061;BMP280;9663;48.996;8.334;2023-06-22T02:54:20;100175.84;;;26.24
19061;BMP280;9663;48.996;8.334;2023-06-22T02:56:46;100174.25;;;26.22
19061;BMP280;9663;48.996;8.334;2023-06-22T02:59:13;100155.34;;;26.20
19061;BMP280;9663;48.996;8.334;2023-06-22T03:01:39;100164.09;;;26.19
19061;BMP280;9663;48.996;8.334;2023-06-22T03:04:12;100162.41;;;26.18
19061;BMP280;9663;48.996;8.334;2023-06-22T03:06:39;100156.50;;;26.16
19061;BMP280;9663;48.996;8.334;2023-06-22T03:09:07;100154.00;;;26.15
19061;BMP280;9663;48.996;8.334;2023-06-22T03:11:34;100159.41;;;26.12
19061;BMP280;9663;48.996;8.334;2023-06-22T03:14:02;100165.53;;;26.11
19061;BMP280;9663;48.996;8.334;2023-06-22T03:16:28;100164.81;;;26.09
19061;BMP280;9663;48.996;8.334;2023-06-22T03:18:54;100169.28;;;26.07
19061;BMP280;9663;48.996;8.334;2023-06-22T03:21:22;100172.09;;;26.04
19061;BMP280;9663;48.996;8.334;2023-06-22T03:23:49;100182.47;;;26.04
19061;BMP280;9663;48.996;8.334;2023-06-22T03:26:18;100179.06;;;26.03
19061;BMP280;9663;48.996;8.334;2023-06-22T03:28:43;100171.38;;;26.02
19061;BMP280;9663;48.996;8.334;2023-06-22T03:31:09;100173.97;;;26.02
19061;BMP280;9663;48.996;8.334;2023-06-22T03:33:35;100170.31;;;26.04
19061;BMP280;9663;48.996;8.334;2023-06-22T03:36:00;100164.28;;;26.04
19061;BMP280;9663;48.996;8.334;2023-06-22T03:38:26;100164.28;;;26.04
19061;BMP280;9663;48.996;8.334;2023-06-22T03:40:52;100161.78;;;26.02
19061;BMP280;9663;48.996;8.334;2023-06-22T03:43:17;100164.50;;;26.01
19061;BMP280;9663;48.996;8.334;2023-06-22T03:45:43;100167.84;;;26.03
19061;BMP280;9663;48.996;8.334;2023-06-22T03:48:11;100157.44;;;26.03
19061;BMP280;9663;48.996;8.334;2023-06-22T03:50:37;100153.06;;;26.03
19061;BMP280;9663;48.996;8.334;2023-06-22T03:53:03;100143.50;;;26.04
19061;BMP280;9663;48.996;8.334;2023-06-22T03:55:29;100137.47;;;26.03
19061;BMP280;9663;48.996;8.334;2023-06-22T03:57:55;100144.31;;;26.04
19061;BMP280;9663;48.996;8.334;2023-06-22T04:00:23;100143.28;;;26.07
19061;BMP280;9663;48.996;8.334;2023-06-22T04:02:49;100143.28;;;26.07
19061;BMP280;9663;48.996;8.334;2023-06-22T04:05:15;100141.41;;;26.09
19061;BMP280;9663;48.996;8.334;2023-06-22T04:07:42;100138.81;;;26.09
19061;BMP280;9663;48.996;8.334;2023-06-22T04:10:08;100138.00;;;26.08
19061;BMP280;9663;48.996;8.334;2023-06-22T04:12:34;100143.09;;;26.10
19061;BMP280;9663;48.996;8.334;2023-06-22T04:15:00;100132.69;;;26.10
19061;BMP280;9663;48.996;8.334;2023-06-22T04:17:26;100131.13;;;26.07
19061;BMP280;9663;48.996;8.334;2023-06-22T04:19:52;100133.81;;;26.06
19061;BMP280;9663;48.996;8.334;2023-06-22T04:22:17;100142.47;;;26.06
19061;BMP280;9663;48.996;8.334;2023-06-22T04:24:44;100136.41;;;26.06
19061;BMP280;9663;48.996;8.334;2023-06-22T04:27:10;100138.91;;;26.07
19061;BMP280;9663;48.996;8.334;2023-06-22T04:29:36;100135.41;;;26.08
19061;BMP280;9663;48.996;8.334;2023-06-22T04:32:01;100130.91;;;26.10
19061;BMP280;9663;48.996;8.334;2023-06-22T04:34:31;100132.25;;;26.16
19061;BMP280;9663;48.996;8.334;2023-06-22T04:36:57;100135.50;;;26.19
19061;BMP280;9663;48.996;8.334;2023-06-22T04:39:23;100133.41;;;26.24
19061;BMP280;9663;48.996;8.334;2023-06-22T04:41:49;100123.66;;;26.27
19061;BMP280;9663;48.996;8.334;2023-06-22T04:44:18;100128.41;;;26.33
19061;BMP280;9663;48.996;8.334;2023-06-22T04:46:56;100128.91;;;26.38
19061;BMP280;9663;48.996;8.334;2023-06-22T04:49:35;100119.13;;;26.42
19061;BMP280;9663;48.996;8.334;2023-06-22T04:52:06;100114.56;;;26.45
19061;BMP280;9663;48.996;8.334;2023-06-22T04:54:34;100117.88;;;26.47
19061;BMP280;9663;48.996;8.334;2023-06-22T04:57:02;100110.81;;;26.49
19061;BMP280;9663;48.996;8.334;2023-06-22T04:59:30;100119.09;;;26.54
19061;BMP280;9663;48.996;8.334;2023-06-22T05:01:57;100112.53;;;26.61
19061;BMP280;9663;48.996;8.334;2023-06-22T05:04:25;100109.38;;;26.68
19061;BMP280;9663;48.996;8.334;2023-06-22T05:06:54;100101.38;;;26.71
19061;BMP280;9663;48.996;8.334;2023-06-22T05:09:21;100105.41;;;26.75
19061;BMP280;9663;48.996;8.334;2023-06-22T05:11:47;100104.81;;;26.83
19061;BMP280;9663;48.996;8.334;2023-06-22T05:14:13;100105.25;;;26.89
19061;BMP280;9663;48.996;8.334;2023-06-22T05:16:41;100096.69;;;27.00
19061;BMP280;9663;48.996;8.334;2023-06-22T05:19:07;100103.91;;;27.07
19061;BMP280;9663;48.996;8.334;2023-06-22T05:21:33;100089.63;;;27.12
19061;BMP280;9663;48.996;8.334;2023-06-22T05:23:59;100093.44;;;27.19
19061;BMP280;9663;48.996;8.334;2023-06-22T05:26:30;100089.44;;;27.26
19061;BMP280;9663;48.996;8.334;2023-06-22T05:28:57;100090.63;;;27.33
19061;BMP280;9663;48.996;8.334;2023-06-22T05:31:23;100085.78;;;27.40
19061;BMP280;9663;48.996;8.334;2023-06-22T05:33:52;100078.47;;;27.45
19061;BMP280;9663;48.996;8.334;2023-06-22T05:36:18;100082.66;;;27.47
19061;BMP280;9663;48.996;8.334;2023-06-22T05:38:45;100077.44;;;27.47
19061;BMP280;9663;48.996;8.334;2023-06-22T05:41:11;100085.16;;;27.49
19061;BMP280;9663;48.996;8.334;2023-06-22T05:43:37;100084.88;;;27.52
19061;BMP280;9663;48.996;8.334;2023-06-22T05:46:04;100091.66;;;27.54
19061;BMP280;9663;48.996;8.334;2023-06-22T05:48:30;100090.25;;;27.61
19061;BMP280;9663;48.996;8.334;2023-06-22T05:50:56;100097.50;;;27.68
19061;BMP280;9663;48.996;8.334;2023-06-22T05:53:22;100091.91;;;27.73
19061;BMP280;9663;48.996;8.334;2023-06-22T05:55:48;100093.34;;;27.77
19061;BMP280;9663;48.996;8.334;2023-06-22T05:58:14;100088.38;;;27.85
19061;BMP280;9663;48.996;8.334;2023-06-22T06:00:41;100088.75;;;27.91
19061;BMP280;9663;48.996;8.334;2023-06-22T06:03:07;100085.66;;;27.97
19061;BMP280;9663;48.996;8.334;2023-06-22T06:05:34;100081.03;;;28.00
19061;BMP280;9663;48.996;8.334;2023-06-22T06:08:02;100085.41;;;28.00
19061;BMP280;9663;48.996;8.334;2023-06-22T06:10:28;100085.41;;;28.00
19061;BMP280;9663;48.996;8.334;2023-06-22T06:12:55;100083.75;;;27.99
19061;BMP280;9663;48.996;8.334;2023-06-22T06:15:22;100075.81;;;28.00
19061;BMP280;9663;48.996;8.334;2023-06-22T06:17:50;100083.19;;;28.06
19061;BMP280;9663;48.996;8.334;2023-06-22T06:20:21;100073.81;;;28.15
19061;BMP280;9663;48.996;8.334;2023-06-22T06:22:48;100065.16;;;28.25
19061;BMP280;9663;48.996;8.334;2023-06-22T06:25:14;100080.78;;;28.36
19061;BMP280;9663;48.996;8.334;2023-06-22T06:27:47;100068.91;;;28.43
19061;BMP280;9663;48.996;8.334;2023-06-22T06:30:15;100066.63;;;28.49
19061;BMP280;9663;48.996;8.334;2023-06-22T06:32:42;100070.41;;;28.56
19061;BMP280;9663;48.996;8.334;2023-06-22T06:35:09;100071.47;;;28.65
19061;BMP280;9663;48.996;8.334;2023-06-22T06:37:39;100065.16;;;28.78
19061;BMP280;9663;48.996;8.334;2023-06-22T06:40:10;100066.91;;;28.88
19061;BMP280;9663;48.996;8.334;2023-06-22T06:42:42;100053.19;;;28.96
19061;BMP280;9663;48.996;8.334;2023-06-22T06:45:19;100051.78;;;29.03
19061;BMP280;9663;48.996;8.334;2023-06-22T06:47:46;100046.16;;;29.07
19061;BMP280;9663;48.996;8.334;2023-06-22T06:50:12;100039.72;;;29.11
19061;BMP280;9663;48.996;8.334;2023-06-22T06:52:38;100036.75;;;29.16
19061;BMP280;9663;48.996;8.334;2023-06-22T06:55:05;100034.72;;;29.19
19061;BMP280;9663;48.996;8.334;2023-06-22T06:57:34;100037.94;;;29.23
19061;BMP280;9663;48.996;8.334;2023-06-22T07:00:00;100034.66;;;29.30
19061;BMP280;9663;48.996;8.334;2023-06-22T07:02:26;100021.09;;;29.36
19061;BMP280;9663;48.996;8.334;2023-06-22T07:04:53;100035.84;;;29.46
19061;BMP280;9663;48.996;8.334;2023-06-22T07:07:21;100028.88;;;29.56
19061;BMP280;9663;48.996;8.334;2023-06-22T07:09:47;100027.56;;;29.62
19061;BMP280;9663;48.996;8.334;2023-06-22T07:12:12;100020.72;;;29.70
19061;BMP280;9663;48.996;8.334;2023-06-22T07:14:38;100032.75;;;29.82
19061;BMP280;9663;48.996;8.334;2023-06-22T07:17:04;100035.00;;;29.96
19061;BMP280;9663;48.996;8.334;2023-06-22T07:19:30;100016.22;;;30.11
19061;BMP280;9663;48.996;8.334;2023-06-22T07:21:57;100006.88;;;30.27
19061;BMP280;9663;48.996;8.334;2023-06-22T07:24:24;100019.47;;;30.43
19061;BMP280;9663;48.996;8.334;2023-06-22T07:26:51;100023.59;;;30.55
19061;BMP280;9663;48.996;8.334;2023-06-22T07:29:17;100011.91;;;30.68
19061;BMP280;9663;48.996;8.334;2023-06-22T07:31:44;99995.38;;;30.77
19061;BMP280;9663;48.996;8.334;2023-06-22T07:34:10;99996.59;;;30.82
19061;BMP280;9663;48.996;8.334;2023-06-22T07:36:36;100017.84;;;30.89
19061;BMP280;9663;48.996;8.334;2023-06-22T07:39:02;100023.34;;;30.95
19061;BMP280;9663;48.996;8.334;2023-06-22T07:41:29;100004.03;;;31.05
19061;BMP280;9663;48.996;8.334;2023-06-22T07:43:55;100002.22;;;31.15
19061;BMP280;9663;48.996;8.334;2023-06-22T07:46:21;100004.00;;;31.24
19061;BMP280;9663;48.996;8.334;2023-06-22T07:48:47;99995.00;;;31.36
19061;BMP280;9663;48.996;8.334;2023-06-22T07:51:13;100000.13;;;31.47
19061;BMP280;9663;48.996;8.334;2023-06-22T07:53:43;100000.31;;;31.63
19061;BMP280;9663;48.996;8.334;2023-06-22T07:56:14;100005.38;;;31.74
19061;BMP280;9663;48.996;8.334;2023-06-22T07:58:45;100014.31;;;31.81
19061;BMP280;9663;48.996;8.334;2023-06-22T08:01:12;100007.41;;;31.89
19061;BMP280;9663;48.996;8.334;2023-06-22T08:03:37;100009.84;;;32.00
19061;BMP280;9663;48.996;8.334;2023-06-22T08:06:05;100014.03;;;32.10
19061;BMP280;9663;48.996;8.334;2023-06-22T08:08:31;100008.47;;;32.23
19061;BMP280;9663;48.996;8.334;2023-06-22T08:10:57;100015.66;;;32.38
19061;BMP280;9663;48.996;8.334;2023-06-22T08:13:23;100015.06;;;32.53
19061;BMP280;9663;48.996;8.334;2023-06-22T08:15:48;100014.38;;;32.69
19061;BMP280;9663;48.996;8.334;2023-06-22T08:18:14;100019.06;;;32.82
19061;BMP280;9663;48.996;8.334;2023-06-22T08:20:42;100016.41;;;32.92
19061;BMP280;9663;48.996;8.334;2023-06-22T08:23:07;100038.81;;;33.04
19061;BMP280;9663;48.996;8.334;2023-06-22T08:25:34;100048.34;;;33.22
19061;BMP280;9663;48.996;8.334;2023-06-22T08:28:02;100049.97;;;33.40
19061;BMP280;9663;48.996;8.334;2023-06-22T08:30:28;100046.97;;;33.61
19061;BMP280;9663;48.996;8.334;2023-06-22T08:32:53;100048.06;;;33.83
19061;BMP280;9663;48.996;8.334;2023-06-22T08:35:23;100053.00;;;34.11
19061;BMP280;9663;48.996;8.334;2023-06-22T08:37:49;100051.78;;;34.39
19061;BMP280;9663;48.996;8.334;2023-06-22T08:40:19;100038.88;;;34.69
19061;BMP280;9663;48.996;8.334;2023-06-22T08:42:46;100029.66;;;34.97
19061;BMP280;9663;48.996;8.334;2023-06-22T08:45:13;100011.38;;;35.27
19061;BMP280;9663;48.996;8.334;2023-06-22T08:47:40;99994.19;;;35.55
19061;BMP280;9663;48.996;8.334;2023-06-22T08:50:08;99990.84;;;35.77
19061;BMP280;9663;48.996;8.334;2023-06-22T08:52:35;99987.97;;;35.94
19061;BMP280;9663;48.996;8.334;2023-06-22T08:55:01;99986.09;;;36.02
19061;BMP280;9663;48.996;8.334;2023-06-22T08:57:29;99998.41;;;36.10
19061;BMP280;9663;48.996;8.334;2023-06-22T08:59:56;99994.66;;;36.04
19061;BMP280;9663;48.996;8.334;2023-06-22T09:02:28;99998.28;;;36.03
19061;BMP280;9663;48.996;8.334;2023-06-22T09:04:57;99997.59;;;36.09
19061;BMP280;9663;48.996;8.334;2023-06-22T09:07:24;100001.06;;;36.10
19061;BMP280;9663;48.996;8.334;2023-06-22T09:09:51;99997.44;;;36.11
19061;BMP280;9663;48.996;8.334;2023-06-22T09:12:19;100002.53;;;36.12
19061;BMP280;9663;48.996;8.334;2023-06-22T09:14:48;100001.34;;;36.15
19061;BMP280;9663;48.996;8.334;2023-06-22T09:17:14;99993.44;;;36.15
19061;BMP280;9663;48.996;8.334;2023-06-22T09:19:39;99998.72;;;36.15
19061;BMP280;9663;48.996;8.334;2023-06-22T09:22:06;99996.41;;;36.12
19061;BMP280;9663;48.996;8.334;2023-06-22T09:24:32;99973.69;;;36.11
19061;BMP280;9663;48.996;8.334;2023-06-22T09:26:58;99977.47;;;36.08
19061;BMP280;9663;48.996;8.334;2023-06-22T09:29:25;99973.84;;;36.09
19061;BMP280;9663;48.996;8.334;2023-06-22T09:31:51;99966.09;;;36.08
19061;BMP280;9663;48.996;8.334;2023-06-22T09:34:19;99970.69;;;36.14
19061;BMP280;9663;48.996;8.334;2023-06-22T09:36:46;99959.75;;;36.17
19061;BMP280;9663;48.996;8.334;2023-06-22T09:39:12;99950.38;;;36.22
19061;BMP280;9663;48.996;8.334;2023-06-22T09:41:37;99920.25;;;36.31
19061;BMP280;9663;48.996;8.334;2023-06-22T09:44:03;99908.66;;;36.40
19061;BMP280;9663;48.996;8.334;2023-06-22T09:46:29;99919.63;;;36.51
19061;BMP280;9663;48.996;8.334;2023-06-22T09:48:55;99915.91;;;36.60
19061;BMP280;9663;48.996;8.334;2023-06-22T09:51:22;99910.59;;;36.68
19061;BMP280;9663;48.996;8.334;2023-06-22T09:53:52;99908.06;;;36.74
19061;BMP280;9663;48.996;8.334;2023-06-22T09:56:19;99897.84;;;36.72
19061;BMP280;9663;48.996;8.334;2023-06-22T09:58:46;99886.31;;;36.65
19061;BMP280;9663;48.996;8.334;2023-06-22T10:01:13;99885.19;;;36.59
19061;BMP280;9663;48.996;8.334;2023-06-22T10:03:41;99905.06;;;36.55
19061;BMP280;9663;48.996;8.334;2023-06-22T10:06:07;99901.59;;;36.55
19061;BMP280;9663;48.996;8.334;2023-06-22T10:08:34;99892.31;;;36.59
19061;BMP280;9663;48.996;8.334;2023-06-22T10:11:00;99893.22;;;36.66
19061;BMP280;9663;48.996;8.334;2023-06-22T10:13:26;99904.38;;;36.75
19061;BMP280;9663;48.996;8.334;2023-06-22T10:15:51;99913.25;;;36.82
19061;BMP280;9663;48.996;8.334;2023-06-22T10:18:18;99906.25;;;36.89
19061;BMP280;9663;48.996;8.334;2023-06-22T10:20:48;99907.63;;;37.00
19061;BMP280;9663;48.996;8.334;2023-06-22T10:23:15;99908.84;;;37.12
19061;BMP280;9663;48.996;8.334;2023-06-22T10:25:41;99902.66;;;37.19
19061;BMP280;9663;48.996;8.334;2023-06-22T10:28:07;99904.56;;;37.25
19061;BMP280;9663;48.996;8.334;2023-06-22T10:30:32;99896.38;;;37.20
19061;BMP280;9663;48.996;8.334;2023-06-22T10:32:58;99894.78;;;37.11
19061;BMP280;9663;48.996;8.334;2023-06-22T10:35:24;99900.41;;;37.08
19061;BMP280;9663;48.996;8.334;2023-06-22T10:37:49;99895.47;;;37.05
19061;BMP280;9663;48.996;8.334;2023-06-22T10:40:17;99889.16;;;37.14
19061;BMP280;9663;48.996;8.334;2023-06-22T10:42:44;99884.78;;;37.21
19061;BMP280;9663;48.996;8.334;2023-06-22T10:45:10;99876.75;;;37.29
19061;BMP280;9663;48.996;8.334;2023-06-22T10:47:37;99880.91;;;37.38
19061;BMP280;9663;48.996;8.334;2023-06-22T10:50:03;99879.03;;;37.46
19061;BMP280;9663;48.996;8.334;2023-06-22T10:52:29;99867.50;;;37.54
19061;BMP280;9663;48.996;8.334;2023-06-22T10:54:55;99875.44;;;37.68
19061;BMP280;9663;48.996;8.334;2023-06-22T10:57:22;99868.72;;;37.86
19061;BMP280;9663;48.996;8.334;2023-06-22T10:59:48;99863.91;;;38.10
19061;BMP280;9663;48.996;8.334;2023-06-22T11:02:13;99868.00;;;38.34
19061;BMP280;9663;48.996;8.334;2023-06-22T11:04:39;99883.72;;;38.62
19061;BMP280;9663;48.996;8.334;2023-06-22T11:07:05;99881.72;;;38.92
19061;BMP280;9663;48.996;8.334;2023-06-22T11:09:31;99880.44;;;39.15
19061;BMP280;9663;48.996;8.334;2023-06-22T11:11:57;99876.06;;;39.28
19061;BMP280;9663;48.996;8.334;2023-06-22T11:14:24;99875.84;;;39.30
19061;BMP280;9663;48.996;8.334;2023-06-22T11:16:51;99878.94;;;39.27
19061;BMP280;9663;48.996;8.334;2023-06-22T11:19:17;99870.47;;;39.17
19061;BMP280;9663;48.996;8.334;2023-06-22T11:21:43;99868.59;;;39.11
19061;BMP280;9663;48.996;8.334;2023-06-22T11:24:09;99859.84;;;39.10
19061;BMP280;9663;48.996;8.334;2023-06-22T11:26:35;99861.06;;;39.14
19061;BMP280;9663;48.996;8.334;2023-06-22T11:29:01;99862.16;;;39.26
19061;BMP280;9663;48.996;8.334;2023-06-22T11:31:31;99864.25;;;39.31
19061;BMP280;9663;48.996;8.334;2023-06-22T11:33:58;99862.41;;;39.31
19061;BMP280;9663;48.996;8.334;2023-06-22T11:36:24;99860.16;;;39.28
19061;BMP280;9663;48.996;8.334;2023-06-22T11:38:50;99856.88;;;39.26
19061;BMP280;9663;48.996;8.334;2023-06-22T11:41:17;99848.44;;;39.16
19061;BMP280;9663;48.996;8.334;2023-06-22T11:43:42;99854.50;;;39.04
19061;BMP280;9663;48.996;8.334;2023-06-22T11:46:08;99856.50;;;38.95
19061;BMP280;9663;48.996;8.334;2023-06-22T11:48:34;99862.75;;;38.88
19061;BMP280;9663;48.996;8.334;2023-06-22T11:50:59;99870.50;;;38.90
19061;BMP280;9663;48.996;8.334;2023-06-22T11:53:26;99885.31;;;39.11
19061;BMP280;9663;48.996;8.334;2023-06-22T11:55:52;99881.47;;;39.54
19061;BMP280;9663;48.996;8.334;2023-06-22T11:58:19;99880.69;;;40.45
19061;BMP280;9663;48.996;8.334;2023-06-22T12:00:45;99868.72;;;41.37
19061;BMP280;9663;48.996;8.334;2023-06-22T12:03:11;99855.97;;;41.96
19061;BMP280;9663;48.996;8.334;2023-06-22T12:05:38;99863.06;;;42.02
19061;BMP280;9663;48.996;8.334;2023-06-22T12:08:04;99861.72;;;41.93
19061;BMP280;9663;48.996;8.334;2023-06-22T12:10:30;99875.31;;;41.78
19061;BMP280;9663;48.996;8.334;2023-06-22T12:12:56;99867.56;;;41.70
19061;BMP280;9663;48.996;8.334;2023-06-22T12:15:26;99864.38;;;41.93
19061;BMP280;9663;48.996;8.334;2023-06-22T12:17:52;99873.25;;;42.48
19061;BMP280;9663;48.996;8.334;2023-06-22T12:20:18;99855.06;;;43.05
19061;BMP280;9663;48.996;8.334;2023-06-22T12:22:44;99851.72;;;43.27
19061;BMP280;9663;48.996;8.334;2023-06-22T12:25:10;99860.81;;;43.37
19061;BMP280;9663;48.996;8.334;2023-06-22T12:27:37;99858.59;;;43.17
19061;BMP280;9663;48.996;8.334;2023-06-22T12:30:04;99865.13;;;42.61
19061;BMP280;9663;48.996;8.334;2023-06-22T12:32:30;99879.75;;;41.91
19061;BMP280;9663;48.996;8.334;2023-06-22T12:34:56;99885.75;;;41.30
19061;BMP280;9663;48.996;8.334;2023-06-22T12:37:23;99880.47;;;40.85
19061;BMP280;9663;48.996;8.334;2023-06-22T12:39:48;99894.41;;;40.48
19061;BMP280;9663;48.996;8.334;2023-06-22T12:42:16;99893.34;;;40.11
19061;BMP280;9663;48.996;8.334;2023-06-22T12:44:42;99893.63;;;39.82
19061;BMP280;9663;48.996;8.334;2023-06-22T12:47:09;99887.16;;;39.51
19061;BMP280;9663;48.996;8.334;2023-06-22T12:49:35;99886.69;;;39.28
19061;BMP280;9663;48.996;8.334;2023-06-22T12:52:02;99879.00;;;39.12
19061;BMP280;9663;48.996;8.334;2023-06-22T12:54:29;99877.75;;;39.02
19061;BMP280;9663;48.996;8.334;2023-06-22T12:56:56;99883.63;;;38.97
19061;BMP280;9663;48.996;8.334;2023-06-22T12:59:23;99888.06;;;38.91
19061;BMP280;9663;48.996;8.334;2023-06-22T13:01:49;99885.59;;;38.89
19061;BMP280;9663;48.996;8.334;2023-06-22T13:04:14;99876.63;;;38.90
19061;BMP280;9663;48.996;8.334;2023-06-22T13:06:41;99879.09;;;38.92
19061;BMP280;9663;48.996;8.334;2023-06-22T13:09:09;99878.41;;;39.10
19061;BMP280;9663;48.996;8.334;2023-06-22T13:11:35;99872.75;;;39.66
19061;BMP280;9663;48.996;8.334;2023-06-22T13:14:01;99858.88;;;40.49
19061;BMP280;9663;48.996;8.334;2023-06-22T13:16:27;99862.44;;;41.13
19061;BMP280;9663;48.996;8.334;2023-06-22T13:18:52;99859.34;;;41.35
19061;BMP280;9663;48.996;8.334;2023-06-22T13:21:18;99862.53;;;41.50
19061;BMP280;9663;48.996;8.334;2023-06-22T13:23:44;99863.47;;;41.68
19061;BMP280;9663;48.996;8.334;2023-06-22T13:26:10;99866.56;;;41.65
19061;BMP280;9663;48.996;8.334;2023-06-22T13:28:35;99859.47;;;41.53
19061;BMP280;9663;48.996;8.334;2023-06-22T13:31:01;99854.63;;;41.30
19061;BMP280;9663;48.996;8.334;2023-06-22T13:33:27;99847.72;;;41.16
19061;BMP280;9663;48.996;8.334;2023-06-22T13:35:52;99841.56;;;41.16
19061;BMP280;9663;48.996;8.334;2023-06-22T13:38:18;99837.63;;;41.38
19061;BMP280;9663;48.996;8.334;2023-06-22T13:40:44;99831.06;;;41.27
19061;BMP280;9663;48.996;8.334;2023-06-22T13:43:10;99841.78;;;41.08
19061;BMP280;9663;48.996;8.334;2023-06-22T13:45:36;99840.13;;;41.20
19061;BMP280;9663;48.996;8.334;2023-06-22T13:48:02;99836.94;;;41.49
19061;BMP280;9663;48.996;8.334;2023-06-22T13:50:27;99833.31;;;41.80
19061;BMP280;9663;48.996;8.334;2023-06-22T13:52:54;99825.19;;;42.00
19061;BMP280;9663;48.996;8.334;2023-06-22T13:55:20;99822.53;;;41.69
19061;BMP280;9663;48.996;8.334;2023-06-22T13:57:46;99851.41;;;41.09
19061;BMP280;9663;48.996;8.334;2023-06-22T14:00:13;99872.72;;;40.38
19061;BMP280;9663;48.996;8.334;2023-06-22T14:02:39;99859.13;;;39.69
19061;BMP280;9663;48.996;8.334;2023-06-22T14:05:08;99843.50;;;39.07
19061;BMP280;9663;48.996;8.334;2023-06-22T14:07:33;99833.56;;;38.54
19061;BMP280;9663;48.996;8.334;2023-06-22T14:10:00;99829.06;;;38.07
19061;BMP280;9663;48.996;8.334;2023-06-22T14:12:26;99831.19;;;37.62
19061;BMP280;9663;48.996;8.334;2023-06-22T14:14:52;99855.78;;;37.27
19061;BMP280;9663;48.996;8.334;2023-06-22T14:17:17;99873.16;;;36.93